Winnipeg, Manitoba

9:45 AM CDT on July 29, 2016 (GMT -0500)
Winnipeg International | | Change Station

Elev 784 ft 49.90 °N, 97.23 °W | Updated 45 minutes ago

Scattered Clouds
Scattered Clouds
66 °F
Feels Like 66 °F
N
5
Wind Variable Wind from SSW

Today
High -- | Low -- °F
--% Chance of Precip.
Yesterday
High -- | Low -- °F
Precip. -- in
Pressure 30.11 in
Visibility 15.0 miles
Clouds Scattered Clouds 24000 ft
Dew Point 57 °F
Humidity 73%
Rainfall 0.00 in
Snow Depth Not available.
5:55 AM 9:14 PM
Waning Crescent, 21% visible
METAR CYWG 291400Z 21004KT 15SM SCT240 19/14 A3009 RMK CI3 CONTRAILS SLP194 DENSITY ALT 1200FT
Pressure 30.11 in
Visibility 15.0 miles
Clouds Scattered Clouds 24000 ft
Dew Point 57 °F
Humidity 73%
Rainfall 0.00 in
Snow Depth Not available.
5:55 AM 9:14 PM
Waning Crescent, 21% visible
METAR CYWG 291400Z 21004KT 15SM SCT240 19/14 A3009 RMK CI3 CONTRAILS SLP194 DENSITY ALT 1200FT

10-Day Weather Forecast

Almanac

Astronomy

Jul. 29, 2016 Rise Set
Actual Time
Civil Twilight
Nautical Twilight
Astronomical Twilight
Moon
Length of Visible Light
Length of Day
Tomorrow will be .
, % of the Moon is Illuminated

Today's Extremes

Country Highs Country Lows

Community

WunderPhotos

Upload Photos

1,928,343 photos uploaded!

WunderBlog® & News

Nearby

Air Quality

  Air Quality AQ Index Pollutant
Not available.

Snow Depth

Station Depth Elevation

Earthquake Activity

City Distance Mag. Time & Date
Minimum magnitude displayed is 2.5.

Coastal Water Temperatures

Place Temperature

Stations

Nearby Weather Stations

Station Location Temp. Windchill Dew Point Humidity Wind Precip. Elev Updated Type
                   

Watches & Warnings

There are currently no watches in effect.